Time;durP1;ratioP1;P1;durP2;ratioP2;P2;SDS_P1;SDS_P2;PMS_P1;PMS_P2;Temp;Humidity;BMP_temperature;BMP_pressure;BME280_temperature;BME280_humidity;BME280_pressure;Samples;Min_cycle;Max_cycle;Signal;HPM_P1;HPM_P2
2021/07/16 00:01:47;;;;;;;16.47;6.60;;;19.60;99.90;;;;;;5063781;28;20456;-85
2021/07/16 00:04:15;;;;;;;27.10;7.00;;;19.60;99.90;;;;;;5061246;28;20482;-86
2021/07/16 00:06:42;;;;;;;16.50;6.73;;;19.50;99.90;;;;;;5075842;28;20483;-84
2021/07/16 00:09:09;;;;;;;21.90;6.40;;;19.50;99.90;;;;;;5067859;28;20451;-84
2021/07/16 00:11:36;;;;;;;16.03;5.70;;;19.50;99.90;;;;;;5076228;28;20447;-84
2021/07/16 00:14:04;;;;;;;16.17;6.77;;;19.50;99.90;;;;;;5069294;28;20505;-84
2021/07/16 00:16:32;;;;;;;20.50;6.60;;;19.60;99.90;;;;;;5069083;28;20499;-84
2021/07/16 00:18:59;;;;;;;17.20;6.73;;;19.50;99.90;;;;;;5075631;28;20515;-84
2021/07/16 00:21:27;;;;;;;17.93;6.63;;;19.50;99.90;;;;;;5076055;28;20447;-84
2021/07/16 00:23:54;;;;;;;20.10;6.73;;;19.50;99.90;;;;;;5061536;28;21000;-84
2021/07/16 00:26:21;;;;;;;17.03;6.90;;;19.60;99.90;;;;;;5054313;28;20483;-85
2021/07/16 00:28:48;;;;;;;18.57;6.40;;;19.60;99.90;;;;;;5052243;28;20559;-84
2021/07/16 00:31:15;;;;;;;16.30;6.30;;;19.60;99.90;;;;;;5052755;28;20456;-85
2021/07/16 00:33:42;;;;;;;18.90;6.40;;;19.60;99.90;;;;;;5049895;28;20475;-84
2021/07/16 00:36:10;;;;;;;15.10;6.03;;;19.50;99.90;;;;;;5053106;28;20543;-84
2021/07/16 00:38:40;;;;;;;17.77;7.30;;;19.50;99.90;;;;;;5052688;28;20474;-84
2021/07/16 00:41:08;;;;;;;28.37;6.87;;;19.50;99.90;;;;;;5053477;28;20459;-84
2021/07/16 00:43:35;;;;;;;14.60;6.03;;;19.40;99.90;;;;;;5053208;28;20456;-84
2021/07/16 00:46:01;;;;;;;19.70;7.00;;;19.40;99.90;;;;;;5053683;28;20448;-83
2021/07/16 00:48:28;;;;;;;18.37;6.83;;;19.40;99.90;;;;;;5053287;28;20877;-84
2021/07/16 00:50:55;;;;;;;16.40;6.87;;;19.30;99.90;;;;;;5054721;28;20456;-83
2021/07/16 00:53:23;;;;;;;16.80;5.93;;;19.40;99.90;;;;;;5053984;28;20476;-85
2021/07/16 00:55:51;;;;;;;20.37;6.30;;;19.50;99.90;;;;;;5053599;28;20472;-84
2021/07/16 00:58:19;;;;;;;19.60;6.87;;;19.50;99.90;;;;;;5052582;28;20447;-83
2021/07/16 01:00:47;;;;;;;16.13;6.23;;;19.40;99.90;;;;;;5052530;28;20463;-84
2021/07/16 01:03:14;;;;;;;21.20;6.43;;;19.40;99.90;;;;;;5046473;28;20453;-83
2021/07/16 01:05:42;;;;;;;16.40;7.00;;;19.30;99.90;;;;;;5032552;28;20472;-84
2021/07/16 01:08:09;;;;;;;20.10;6.27;;;19.30;99.90;;;;;;5032567;28;20487;-83
2021/07/16 01:10:36;;;;;;;16.07;5.93;;;19.30;99.90;;;;;;5032213;28;20553;-84
2021/07/16 01:13:08;;;;;;;16.50;5.47;;;19.20;99.90;;;;;;5036487;28;20452;-84
2021/07/16 01:15:35;;;;;;;17.43;6.30;;;19.20;99.90;;;;;;5051766;28;20483;-84
2021/07/16 01:18:02;;;;;;;21.57;7.70;;;19.20;99.90;;;;;;5052061;28;20436;-84
2021/07/16 01:20:30;;;;;;;21.27;6.60;;;19.20;99.90;;;;;;5050012;28;20454;-84
2021/07/16 01:22:59;;;;;;;17.27;6.73;;;19.20;99.90;;;;;;5053226;28;20531;-83
2021/07/16 01:25:29;;;;;;;24.60;6.73;;;19.20;99.90;;;;;;5053652;28;20554;-85
2021/07/16 01:28:00;;;;;;;16.20;5.87;;;19.10;99.90;;;;;;5054415;28;20558;-85
2021/07/16 01:30:30;;;;;;;16.70;5.80;;;19.10;99.90;;;;;;5052129;28;20582;-84
2021/07/16 01:32:58;;;;;;;15.23;5.63;;;19.00;99.90;;;;;;5035020;28;20444;-84
2021/07/16 01:35:25;;;;;;;26.00;7.43;;;19.10;99.90;;;;;;5033183;28;20487;-84
2021/07/16 01:37:52;;;;;;;19.77;6.43;;;19.00;99.90;;;;;;5033626;28;20467;-84
2021/07/16 01:40:21;;;;;;;16.60;6.10;;;19.00;99.90;;;;;;5038259;28;20458;-84
2021/07/16 01:42:52;;;;;;;17.03;5.60;;;19.00;99.90;;;;;;5054696;28;20447;-84
2021/07/16 01:45:22;;;;;;;20.23;6.83;;;19.10;99.90;;;;;;5065052;28;20464;-84
2021/07/16 01:47:51;;;;;;;14.47;5.73;;;19.00;99.90;;;;;;5074180;28;20507;-84
2021/07/16 01:50:18;;;;;;;20.73;5.80;;;19.00;99.90;;;;;;5073256;28;20496;-84
2021/07/16 01:52:46;;;;;;;21.03;6.97;;;19.00;99.90;;;;;;5074258;28;20515;-84
2021/07/16 01:55:14;;;;;;;15.30;5.70;;;19.00;99.90;;;;;;5073970;28;20472;-84
2021/07/16 01:57:45;;;;;;;20.70;6.40;;;18.90;99.90;;;;;;5067246;28;20531;-84
2021/07/16 02:00:16;;;;;;;19.50;5.70;;;18.90;99.90;;;;;;5061232;28;20458;-85
2021/07/16 02:02:47;;;;;;;16.30;5.40;;;19.00;99.90;;;;;;5072022;28;20526;-84
2021/07/16 02:05:15;;;;;;;16.87;5.73;;;19.00;99.90;;;;;;5073366;28;20982;-85
2021/07/16 02:07:42;;;;;;;19.27;5.70;;;19.10;99.90;;;;;;5081952;28;20483;-84
2021/07/16 02:10:10;;;;;;;15.43;5.10;;;19.10;99.90;;;;;;5079084;28;20453;-84
2021/07/16 02:12:37;;;;;;;18.23;5.10;;;19.10;99.90;;;;;;5065379;28;20487;-85
2021/07/16 02:15:09;;;;;;;13.60;4.70;;;19.10;99.90;;;;;;5072692;28;20465;-84
2021/07/16 02:17:38;;;;;;;16.23;4.83;;;19.10;99.90;;;;;;5070220;28;20444;-85
2021/07/16 02:20:06;;;;;;;21.90;5.50;;;19.10;99.90;;;;;;5074085;28;20454;-85
2021/07/16 02:22:34;;;;;;;14.17;5.50;;;19.10;99.90;;;;;;5063755;28;20710;-85
2021/07/16 02:25:01;;;;;;;17.50;5.93;;;19.10;99.90;;;;;;5078601;28;20470;-86
2021/07/16 02:27:28;;;;;;;18.30;5.30;;;19.10;99.90;;;;;;5080906;28;20586;-85
2021/07/16 02:29:56;;;;;;;18.33;6.20;;;19.00;99.90;;;;;;5079002;28;20534;-85
2021/07/16 02:32:23;;;;;;;15.33;6.37;;;19.00;99.90;;;;;;5058616;28;20460;-86
2021/07/16 02:34:51;;;;;;;16.40;6.30;;;19.00;99.90;;;;;;5060240;28;20594;-85
2021/07/16 02:37:18;;;;;;;23.43;7.67;;;19.00;99.90;;;;;;5061253;28;20444;-85
2021/07/16 02:39:45;;;;;;;17.20;5.90;;;18.90;99.90;;;;;;5060318;28;21038;-85
2021/07/16 02:42:12;;;;;;;18.43;6.90;;;19.00;99.90;;;;;;5060945;28;20530;-84
2021/07/16 02:44:39;;;;;;;18.97;8.50;;;19.00;99.90;;;;;;5058937;28;20520;-85
2021/07/16 02:47:06;;;;;;;18.07;6.43;;;18.80;99.90;;;;;;5057554;28;20846;-83
2021/07/16 02:49:32;;;;;;;22.63;8.20;;;18.80;99.90;;;;;;5055116;28;20458;-84
2021/07/16 02:52:01;;;;;;;17.67;7.30;;;18.80;99.90;;;;;;5039924;28;20536;-84
2021/07/16 02:54:28;;;;;;;20.50;7.37;;;18.80;99.90;;;;;;5035722;28;20453;-85
2021/07/16 02:56:55;;;;;;;21.03;7.87;;;18.80;99.90;;;;;;5036253;28;20437;-84
2021/07/16 02:59:21;;;;;;;23.13;8.47;;;18.80;99.90;;;;;;5036029;28;20487;-84
2021/07/16 03:01:55;;;;;;;16.87;6.00;;;18.80;99.90;;;;;;5049094;28;20440;-85
2021/07/16 03:04:22;;;;;;;20.03;7.03;;;18.80;99.90;;;;;;5056587;28;20472;-85
2021/07/16 03:06:49;;;;;;;17.60;7.23;;;18.80;99.90;;;;;;5057497;28;20531;-85
2021/07/16 03:09:18;;;;;;;23.50;8.07;;;18.80;99.90;;;;;;5052608;28;20493;-85
2021/07/16 03:11:45;;;;;;;22.37;6.97;;;18.80;99.90;;;;;;5048524;28;20464;-85
2021/07/16 03:14:12;;;;;;;21.40;7.93;;;18.80;99.90;;;;;;5067336;28;20545;-85
2021/07/16 03:16:39;;;;;;;19.90;6.77;;;18.80;99.90;;;;;;5067564;28;20447;-84
2021/07/16 03:19:06;;;;;;;17.10;6.67;;;18.80;99.90;;;;;;5074294;28;20957;-85
2021/07/16 03:21:34;;;;;;;20.50;7.87;;;18.80;99.90;;;;;;5069271;28;20462;-84
2021/07/16 03:24:01;;;;;;;20.07;6.97;;;18.80;99.90;;;;;;5049290;28;20475;-85
2021/07/16 03:26:30;;;;;;;21.73;8.50;;;18.70;99.90;;;;;;5067807;28;20435;-85
2021/07/16 03:28:57;;;;;;;19.07;7.00;;;18.70;99.90;;;;;;5065111;28;20483;-86
2021/07/16 03:31:26;;;;;;;23.63;7.63;;;18.80;99.90;;;;;;5061527;28;20457;-85
2021/07/16 03:33:53;;;;;;;24.03;9.23;;;18.70;99.90;;;;;;5091449;28;20481;-85
2021/07/16 03:36:20;;;;;;;17.83;7.10;;;18.70;99.90;;;;;;5097396;28;20443;-85
2021/07/16 03:38:51;;;;;;;21.23;7.13;;;18.60;99.90;;;;;;5097321;28;20454;-85
2021/07/16 03:41:19;;;;;;;16.20;6.67;;;18.70;99.90;;;;;;5079206;28;20452;-85
2021/07/16 03:43:47;;;;;;;17.73;7.10;;;18.60;99.90;;;;;;5057727;28;20448;-85
2021/07/16 03:46:16;;;;;;;21.00;7.73;;;18.60;99.90;;;;;;5057949;28;20475;-85
2021/07/16 03:48:44;;;;;;;25.27;7.00;;;18.60;99.90;;;;;;5050766;28;20496;-84
2021/07/16 03:51:11;;;;;;;19.10;6.70;;;18.60;99.90;;;;;;5055121;28;20479;-85
2021/07/16 03:53:38;;;;;;;20.37;7.23;;;18.70;99.90;;;;;;5057034;28;20444;-85
2021/07/16 03:56:05;;;;;;;18.37;7.70;;;18.70;99.90;;;;;;5055017;28;20458;-85
2021/07/16 03:58:32;;;;;;;21.10;7.20;;;18.70;99.90;;;;;;5053193;28;20436;-84
2021/07/16 04:01:00;;;;;;;19.17;7.87;;;18.70;99.90;;;;;;5050043;28;20461;-85
2021/07/16 04:03:27;;;;;;;16.70;7.30;;;18.70;99.90;;;;;;5036157;28;20535;-86
2021/07/16 04:05:55;;;;;;;18.17;6.90;;;18.70;99.90;;;;;;5036303;28;20453;-84
2021/07/16 04:08:23;;;;;;;21.47;7.50;;;18.70;99.90;;;;;;5036718;28;20484;-84
2021/07/16 04:10:50;;;;;;;20.60;7.17;;;18.70;99.90;;;;;;5040710;28;20452;-85
2021/07/16 04:13:17;;;;;;;17.30;6.57;;;18.70;99.90;;;;;;5056267;28;20452;-85
2021/07/16 04:15:44;;;;;;;17.40;7.37;;;18.60;99.90;;;;;;5058690;28;21109;-84
2021/07/16 04:18:13;;;;;;;23.57;8.83;;;18.60;99.90;;;;;;5055302;28;20944;-83
2021/07/16 04:20:41;;;;;;;18.77;8.10;;;18.50;99.90;;;;;;5051854;28;20551;-85
2021/07/16 04:23:08;;;;;;;22.10;7.87;;;18.50;99.90;;;;;;5035345;28;20540;-84
2021/07/16 04:25:35;;;;;;;16.33;6.90;;;18.50;99.90;;;;;;5035413;28;20468;-84
2021/07/16 04:28:03;;;;;;;15.57;7.53;;;18.50;99.90;;;;;;5034211;28;20579;-84
2021/07/16 04:30:36;;;;;;;20.80;8.47;;;18.40;99.90;;;;;;5042519;28;20538;-84
2021/07/16 04:33:05;;;;;;;17.67;7.00;;;18.50;99.90;;;;;;5035127;28;21039;-84
2021/07/16 04:35:34;;;;;;;14.87;5.37;;;18.50;99.90;;;;;;5035722;28;20491;-84
2021/07/16 04:38:00;;;;;;;18.17;6.50;;;18.50;99.90;;;;;;5035152;28;20449;-85
2021/07/16 04:40:29;;;;;;;16.83;7.00;;;18.50;99.90;;;;;;5034383;28;20452;-85
2021/07/16 04:42:57;;;;;;;16.73;5.83;;;18.40;99.90;;;;;;5054559;28;20545;-84
2021/07/16 04:45:25;;;;;;;17.47;6.60;;;18.40;99.90;;;;;;5054258;28;20499;-86
2021/07/16 04:47:52;;;;;;;14.77;5.70;;;18.30;99.90;;;;;;5054340;28;20488;-85
2021/07/16 04:50:20;;;;;;;23.20;7.07;;;18.40;99.90;;;;;;5054330;28;20459;-87
2021/07/16 04:52:49;;;;;;;16.40;6.47;;;18.40;99.90;;;;;;5034122;28;20448;-87
2021/07/16 04:55:18;;;;;;;17.53;5.33;;;18.40;99.90;;;;;;5034464;28;20568;-88
2021/07/16 04:57:45;;;;;;;17.00;6.77;;;18.50;99.90;;;;;;5032768;28;20949;-87
2021/07/16 05:00:14;;;;;;;18.83;6.40;;;18.50;99.90;;;;;;5033855;28;20836;-88
2021/07/16 05:02:41;;;;;;;17.47;6.63;;;18.60;99.90;;;;;;5052200;28;20472;-88
2021/07/16 05:05:09;;;;;;;16.67;6.80;;;18.60;99.90;;;;;;5052471;28;20559;-88
2021/07/16 05:07:36;;;;;;;20.30;7.50;;;18.50;99.90;;;;;;5052756;28;20454;-86
2021/07/16 05:10:06;;;;;;;19.63;7.23;;;18.60;99.90;;;;;;5033368;28;20450;-86
2021/07/16 05:12:34;;;;;;;17.40;6.50;;;18.60;99.90;;;;;;5054293;28;20462;-85
2021/07/16 05:15:01;;;;;;;18.47;7.40;;;18.50;99.90;;;;;;5057590;28;20475;-84
2021/07/16 05:17:28;;;;;;;17.53;7.07;;;18.50;99.90;;;;;;5057511;28;20458;-84
2021/07/16 05:19:54;;;;;;;18.57;6.63;;;18.50;99.90;;;;;;5056892;28;20520;-83
2021/07/16 05:22:21;;;;;;;16.87;7.03;;;18.60;99.90;;;;;;5051916;28;20451;-84
2021/07/16 05:24:51;;;;;;;16.53;6.07;;;18.50;99.90;;;;;;5048293;28;20474;-84
2021/07/16 05:27:19;;;;;;;19.60;6.50;;;18.50;99.90;;;;;;5046820;28;20436;-84
2021/07/16 05:29:54;;;;;;;16.63;6.50;;;18.60;99.90;;;;;;5040764;28;20518;-83
2021/07/16 05:32:20;;;;;;;16.00;6.30;;;18.60;99.90;;;;;;5048848;28;20452;-84
2021/07/16 05:34:50;;;;;;;14.03;5.30;;;18.80;99.90;;;;;;5051793;28;20479;-84
2021/07/16 05:37:18;;;;;;;19.07;7.07;;;19.00;99.90;;;;;;5050335;28;20451;-84
2021/07/16 05:39:48;;;;;;;17.47;5.77;;;19.00;99.90;;;;;;5049723;28;20464;-84
2021/07/16 05:42:20;;;;;;;21.90;6.50;;;19.10;99.90;;;;;;5049207;28;20473;-83
2021/07/16 05:44:55;;;;;;;15.63;5.70;;;19.10;99.90;;;;;;5050958;28;20469;-84
2021/07/16 05:47:26;;;;;;;17.03;6.10;;;19.20;99.90;;;;;;5052238;28;20447;-85
2021/07/16 05:49:55;;;;;;;15.63;6.10;;;19.30;99.90;;;;;;5055536;28;20514;-84
2021/07/16 05:52:24;;;;;;;19.50;7.00;;;19.30;99.90;;;;;;5053831;28;20449;-84
2021/07/16 05:54:50;;;;;;;19.53;6.70;;;19.40;99.90;;;;;;5053357;28;20464;-85
2021/07/16 05:57:17;;;;;;;17.10;6.13;;;19.30;99.90;;;;;;5049739;28;20531;-84
2021/07/16 05:59:46;;;;;;;22.23;6.97;;;19.40;99.90;;;;;;5052849;28;20454;-84
2021/07/16 06:02:13;;;;;;;23.73;7.77;;;19.40;99.90;;;;;;5052552;28;20497;-85
2021/07/16 06:04:40;;;;;;;22.37;6.63;;;19.30;99.90;;;;;;5054019;28;20483;-84
2021/07/16 06:07:13;;;;;;;21.87;8.17;;;19.20;99.90;;;;;;5051188;28;20452;-85
2021/07/16 06:09:40;;;;;;;17.03;6.50;;;19.20;99.90;;;;;;5050558;28;20495;-81
2021/07/16 06:12:07;;;;;;;19.20;6.90;;;19.20;99.90;;;;;;5063808;28;20484;-82
2021/07/16 06:14:34;;;;;;;24.33;7.33;;;19.10;99.90;;;;;;5059089;28;20559;-81
2021/07/16 06:17:03;;;;;;;17.93;6.10;;;19.10;99.90;;;;;;5057721;28;20503;-82
2021/07/16 06:19:30;;;;;;;21.80;7.60;;;19.10;99.90;;;;;;5056064;28;20507;-82
2021/07/16 06:22:00;;;;;;;22.87;8.10;;;19.20;99.90;;;;;;5058012;28;20452;-81
2021/07/16 06:24:27;;;;;;;19.10;6.67;;;19.10;99.90;;;;;;5054146;28;20480;-83
2021/07/16 06:26:54;;;;;;;19.90;6.87;;;19.10;99.90;;;;;;5061347;28;20456;-81
2021/07/16 06:29:20;;;;;;;22.77;8.40;;;18.90;99.90;;;;;;5060647;28;20553;-82
2021/07/16 06:31:47;;;;;;;20.80;7.70;;;19.10;99.90;;;;;;5058711;28;20523;-82
2021/07/16 06:34:15;;;;;;;20.70;7.63;;;19.10;99.90;;;;;;5067893;28;20472;-83
2021/07/16 06:36:42;;;;;;;19.20;7.20;;;19.10;99.90;;;;;;5059224;28;20468;-82
2021/07/16 06:39:10;;;;;;;23.00;7.90;;;19.10;99.90;;;;;;5060438;28;20471;-82
2021/07/16 06:41:37;;;;;;;20.60;8.13;;;19.00;99.90;;;;;;5059174;28;20456;-83
2021/07/16 06:44:08;;;;;;;22.33;8.37;;;18.90;99.90;;;;;;5069100;28;20476;-85
2021/07/16 06:46:35;;;;;;;27.73;9.47;;;18.80;99.90;;;;;;5067075;28;20447;-84
2021/07/16 06:49:02;;;;;;;19.87;8.47;;;18.70;99.90;;;;;;5065071;28;20494;-82
2021/07/16 06:51:30;;;;;;;21.63;8.10;;;18.50;99.90;;;;;;5067695;28;20487;-85
2021/07/16 06:53:57;;;;;;;20.37;8.17;;;18.60;99.90;;;;;;5060828;28;20503;-84
2021/07/16 06:56:24;;;;;;;19.93;7.60;;;18.50;99.90;;;;;;5058253;28;20467;-84
2021/07/16 06:58:52;;;;;;;22.43;7.00;;;18.60;99.90;;;;;;5057644;28;20436;-84
2021/07/16 07:01:19;;;;;;;21.97;7.87;;;18.60;99.90;;;;;;5055885;28;20452;-83
2021/07/16 07:06:18;;;;;;;23.30;9.03;;;18.50;99.90;;;;;;5034662;22;20497;-89
2021/07/16 07:08:46;;;;;;;24.40;8.10;;;18.50;99.90;;;;;;5014099;28;20493;-89
2021/07/16 07:11:13;;;;;;;18.97;7.50;;;18.40;99.90;;;;;;5010300;28;20523;-90
2021/07/16 07:13:40;;;;;;;26.63;9.30;;;18.50;99.90;;;;;;4994643;28;20470;-89
2021/07/16 07:16:07;;;;;;;24.33;8.37;;;18.50;99.90;;;;;;4996847;28;20485;-90
2021/07/16 07:18:34;;;;;;;22.10;7.77;;;18.50;99.90;;;;;;5010671;28;20473;-89
2021/07/16 07:21:00;;;;;;;21.07;7.33;;;18.60;99.90;;;;;;5013552;28;20446;-90
2021/07/16 07:23:27;;;;;;;21.20;8.00;;;18.60;99.90;;;;;;5010404;28;20498;-89
2021/07/16 07:25:55;;;;;;;24.47;8.10;;;18.70;99.90;;;;;;5010617;28;20541;-89
2021/07/16 07:28:27;;;;;;;20.37;8.50;;;18.70;99.90;;;;;;4998071;28;20536;-90
2021/07/16 07:30:54;;;;;;;21.03;7.20;;;18.70;99.90;;;;;;5013899;28;20454;-89
2021/07/16 07:33:21;;;;;;;22.57;7.70;;;18.70;99.90;;;;;;5013524;28;20476;-90
2021/07/16 07:35:51;;;;;;;19.63;7.20;;;18.80;99.90;;;;;;4999488;28;20529;-89
2021/07/16 07:38:21;;;;;;;19.57;7.20;;;18.70;99.90;;;;;;5011571;28;20454;-89
2021/07/16 07:40:49;;;;;;;17.70;7.40;;;18.80;99.90;;;;;;5014850;28;20453;-89
2021/07/16 07:43:19;;;;;;;19.40;7.37;;;18.90;99.90;;;;;;5014072;28;20450;-90
2021/07/16 07:45:48;;;;;;;23.93;7.43;;;19.00;99.90;;;;;;5013601;28;20513;-90
2021/07/16 07:48:18;;;;;;;23.83;7.50;;;19.00;99.90;;;;;;5013640;28;20527;-91
2021/07/16 07:50:47;;;;;;;18.50;7.17;;;19.00;99.90;;;;;;5013581;28;20460;-90
2021/07/16 07:53:16;;;;;;;18.17;6.60;;;19.10;99.90;;;;;;5012833;28;20954;-91
2021/07/16 07:55:43;;;;;;;20.60;7.40;;;19.10;99.90;;;;;;5010356;28;20481;-91
2021/07/16 07:58:11;;;;;;;24.03;7.23;;;19.10;99.90;;;;;;5015041;28;20500;-91
2021/07/16 08:00:40;;;;;;;25.70;7.63;;;19.10;99.90;;;;;;5027204;28;20502;-91
2021/07/16 08:03:07;;;;;;;23.27;7.37;;;19.10;99.90;;;;;;5000615;28;20529;-90
2021/07/16 08:05:34;;;;;;;22.40;7.77;;;19.10;99.90;;;;;;4998439;28;20547;-90
2021/07/16 08:08:04;;;;;;;23.90;8.37;;;19.20;99.90;;;;;;5018437;28;20489;-91
2021/07/16 08:10:31;;;;;;;18.30;6.73;;;19.20;99.90;;;;;;5039708;28;20511;-92
2021/07/16 08:12:58;;;;;;;26.63;7.30;;;19.10;99.90;;;;;;5033659;28;20457;-91
2021/07/16 08:15:26;;;;;;;22.10;8.73;;;19.20;99.90;;;;;;5034382;28;20461;-91
2021/07/16 08:18:02;;;;;;;22.70;8.00;;;19.20;99.90;;;;;;5024686;28;20466;-91
2021/07/16 08:20:29;;;;;;;24.47;7.80;;;19.30;99.90;;;;;;5004152;28;20486;-90
2021/07/16 08:22:56;;;;;;;20.83;7.10;;;19.20;99.90;;;;;;4995508;28;20891;-90
2021/07/16 08:25:23;;;;;;;19.43;7.40;;;19.40;99.90;;;;;;5005668;28;20539;-90
2021/07/16 08:27:50;;;;;;;19.87;6.80;;;19.40;99.90;;;;;;5020893;28;20948;-90
2021/07/16 08:30:17;;;;;;;22.40;6.93;;;19.50;99.90;;;;;;5014161;28;20509;-91
2021/07/16 08:32:47;;;;;;;20.13;6.93;;;19.60;99.90;;;;;;5001695;28;20459;-89
2021/07/16 08:35:21;;;;;;;18.90;7.10;;;19.60;99.90;;;;;;4997989;28;20478;-90
2021/07/16 08:37:51;;;;;;;20.13;6.97;;;19.70;99.90;;;;;;4995467;28;20466;-89
2021/07/16 08:40:33;;;;;;;18.50;7.50;;;19.80;99.90;;;;;;4995779;28;20451;-89
2021/07/16 08:43:06;;;;;;;20.20;6.77;;;20.00;99.90;;;;;;4992214;28;20453;-90
2021/07/16 08:45:35;;;;;;;21.30;7.23;;;20.10;99.90;;;;;;5013612;28;20905;-90
2021/07/16 08:48:07;;;;;;;17.63;5.77;;;20.30;99.90;;;;;;5013359;28;20458;-90
2021/07/16 08:50:36;;;;;;;18.13;7.13;;;20.30;99.90;;;;;;4996272;28;20830;-91
2021/07/16 08:53:12;;;;;;;20.70;6.33;;;20.40;99.90;;;;;;4997838;28;20473;-89
2021/07/16 08:55:42;;;;;;;20.57;6.23;;;20.50;99.90;;;;;;4993568;28;20994;-92
2021/07/16 08:58:11;;;;;;;21.23;6.73;;;20.50;99.90;;;;;;4993915;28;20605;-89
2021/07/16 09:00:40;;;;;;;27.83;6.10;;;20.50;99.90;;;;;;4993697;28;20458;-90
2021/07/16 09:03:14;;;;;;;20.63;6.10;;;20.40;99.90;;;;;;4994066;28;20459;-89
2021/07/16 09:05:45;;;;;;;17.70;6.20;;;20.30;99.90;;;;;;4993620;28;21062;-89
2021/07/16 09:08:20;;;;;;;20.13;6.43;;;20.30;99.90;;;;;;4994205;28;20446;-90
2021/07/16 09:10:50;;;;;;;20.80;6.70;;;20.30;99.90;;;;;;4998574;28;20482;-90
2021/07/16 09:13:25;;;;;;;22.77;8.00;;;20.30;99.90;;;;;;4998512;28;20442;-90
2021/07/16 09:15:59;;;;;;;21.97;6.00;;;20.20;99.90;;;;;;4998853;28;20560;-88
2021/07/16 09:18:27;;;;;;;20.17;6.57;;;20.20;99.90;;;;;;4996267;28;20838;-88
2021/07/16 09:21:09;;;;;;;22.87;7.07;;;20.20;99.90;;;;;;5009415;28;20828;-87
2021/07/16 09:23:55;;;;;;;22.30;6.50;;;20.30;99.90;;;;;;5011466;28;20453;-87
2021/07/16 09:26:28;;;;;;;18.97;7.10;;;20.40;99.90;;;;;;4956906;29;20468;-86
2021/07/16 09:28:57;;;;;;;19.87;7.00;;;20.50;99.90;;;;;;5006011;28;20541;-87
2021/07/16 09:31:27;;;;;;;25.00;6.70;;;20.70;99.90;;;;;;5017531;28;20533;-87
2021/07/16 09:33:56;;;;;;;22.27;6.53;;;20.70;99.90;;;;;;5017545;28;20453;-86
2021/07/16 09:36:27;;;;;;;20.87;7.70;;;20.70;99.90;;;;;;5016648;28;20461;-87
2021/07/16 09:38:56;;;;;;;20.40;7.37;;;20.60;99.90;;;;;;5019658;28;20449;-87
2021/07/16 09:41:23;;;;;;;21.00;7.30;;;20.60;99.90;;;;;;5020426;28;20954;-87
2021/07/16 09:43:59;;;;;;;23.43;7.60;;;20.50;99.90;;;;;;5026365;28;20452;-87
2021/07/16 09:46:26;;;;;;;23.07;7.90;;;20.50;99.90;;;;;;5014967;28;20945;-86
2021/07/16 09:48:53;;;;;;;27.60;8.83;;;20.50;99.90;;;;;;5016749;28;20450;-86
2021/07/16 09:51:22;;;;;;;21.97;7.27;;;20.50;99.90;;;;;;5014643;28;20916;-85
2021/07/16 09:53:52;;;;;;;25.23;7.73;;;20.50;99.90;;;;;;4995950;28;20454;-86
2021/07/16 09:56:21;;;;;;;25.13;8.17;;;20.50;99.90;;;;;;4996609;28;20457;-85
2021/07/16 09:58:49;;;;;;;24.97;6.70;;;20.60;99.90;;;;;;4997481;28;20454;-87
2021/07/16 10:01:16;;;;;;;21.40;6.07;;;20.60;99.90;;;;;;5013773;28;20457;-85
2021/07/16 10:03:44;;;;;;;20.30;6.60;;;20.60;99.90;;;;;;5015314;28;21052;-87
2021/07/16 10:06:15;;;;;;;26.90;7.20;;;20.50;99.90;;;;;;5016456;28;20481;-86
2021/07/16 10:08:43;;;;;;;23.07;6.50;;;20.40;99.90;;;;;;5014111;28;20540;-86
2021/07/16 10:11:12;;;;;;;33.00;9.40;;;20.50;99.90;;;;;;5015915;28;20532;-85
2021/07/16 10:13:41;;;;;;;23.30;6.90;;;20.50;99.90;;;;;;5015296;28;20548;-85
2021/07/16 10:16:08;;;;;;;19.83;6.90;;;20.70;99.90;;;;;;5015404;28;20473;-86
2021/07/16 10:18:35;;;;;;;21.33;6.70;;;20.60;99.90;;;;;;5013839;28;20453;-85
2021/07/16 10:21:02;;;;;;;21.53;6.67;;;20.80;99.90;;;;;;5013433;28;20468;-87
2021/07/16 10:23:29;;;;;;;23.93;7.03;;;20.90;99.90;;;;;;4997607;28;20467;-87
2021/07/16 10:25:57;;;;;;;21.10;6.53;;;21.10;99.90;;;;;;4995080;28;21061;-85
2021/07/16 10:28:35;;;;;;;22.83;6.83;;;21.30;99.90;;;;;;4994842;28;20910;-85
2021/07/16 10:31:02;;;;;;;25.83;7.10;;;21.30;99.90;;;;;;5004437;28;20485;-86
2021/07/16 10:33:38;;;;;;;25.43;6.90;;;21.30;99.90;;;;;;5013527;28;20450;-85
2021/07/16 10:36:10;;;;;;;25.33;6.67;;;21.30;99.90;;;;;;5016107;28;20503;-85
2021/07/16 10:38:37;;;;;;;26.40;7.47;;;21.30;99.90;;;;;;5014180;28;20969;-85
2021/07/16 10:41:04;;;;;;;20.23;6.53;;;21.50;99.90;;;;;;5015234;28;20446;-86
2021/07/16 10:43:42;;;;;;;26.27;8.57;;;21.60;99.90;;;;;;4997527;28;20462;-85
2021/07/16 10:46:32;;;;;;;25.70;8.87;;;21.80;99.90;;;;;;4994229;28;20533;-87
2021/07/16 10:49:00;;;;;;;24.77;9.47;;;21.70;99.90;;;;;;5006742;28;20442;-85
2021/07/16 10:51:30;;;;;;;26.50;9.70;;;21.60;99.90;;;;;;5011819;28;20909;-87
2021/07/16 10:53:59;;;;;;;28.07;11.23;;;21.60;99.90;;;;;;5013143;28;20446;-86
2021/07/16 10:56:42;;;;;;;27.03;12.53;;;21.70;99.90;;;;;;5013020;28;21028;-86
2021/07/16 10:59:11;;;;;;;29.97;14.40;;;21.80;99.90;;;;;;5008697;28;21021;-86
2021/07/16 11:01:41;;;;;;;29.40;14.80;;;21.70;99.90;;;;;;5015982;28;20461;-85
2021/07/16 11:04:29;;;;;;;30.17;16.23;;;21.50;99.90;;;;;;5014569;28;20504;-85
2021/07/16 11:06:57;;;;;;;27.43;14.07;;;21.60;99.90;;;;;;5010957;28;20488;-87
2021/07/16 11:09:42;;;;;;;29.20;13.50;;;21.60;99.90;;;;;;5008550;28;20449;-86
2021/07/16 11:12:23;;;;;;;23.67;10.47;;;21.40;99.90;;;;;;5008901;28;20549;-86
2021/07/16 11:14:52;;;;;;;26.77;9.60;;;21.30;99.90;;;;;;5010911;28;20549;-85
2021/07/16 11:17:34;;;;;;;25.33;10.10;;;21.20;99.90;;;;;;5014251;28;20517;-85
2021/07/16 11:20:19;;;;;;;22.90;10.17;;;21.20;99.90;;;;;;5002226;28;20450;-85
2021/07/16 11:23:01;;;;;;;22.00;9.23;;;21.20;99.90;;;;;;5003185;28;20541;-85
2021/07/16 11:25:30;;;;;;;23.57;9.10;;;21.30;99.90;;;;;;5007983;28;20469;-85
2021/07/16 11:27:57;;;;;;;24.93;8.33;;;21.30;99.90;;;;;;5010391;28;20529;-85
2021/07/16 11:30:27;;;;;;;24.60;7.80;;;21.50;99.90;;;;;;5013702;28;20493;-85
2021/07/16 11:33:02;;;;;;;23.57;8.90;;;21.50;99.90;;;;;;5015300;28;20485;-85
2021/07/16 11:35:30;;;;;;;24.60;9.40;;;21.60;99.90;;;;;;5015791;28;21009;-85
2021/07/16 11:37:57;;;;;;;23.70;8.17;;;21.70;99.90;;;;;;5015178;28;20513;-85
2021/07/16 11:40:29;;;;;;;25.47;8.47;;;21.70;99.90;;;;;;5013282;28;20501;-86
2021/07/16 11:42:59;;;;;;;25.93;9.03;;;21.60;99.90;;;;;;5010672;28;20532;-85
2021/07/16 11:45:45;;;;;;;29.00;11.00;;;21.40;99.90;;;;;;5010244;28;20477;-87
2021/07/16 11:48:16;;;;;;;28.97;13.37;;;21.20;99.90;;;;;;5014752;28;20484;-86
2021/07/16 11:50:46;;;;;;;28.70;15.07;;;21.10;99.90;;;;;;5018917;28;20875;-86
2021/07/16 11:53:13;;;;;;;27.80;15.00;;;21.00;99.90;;;;;;5015696;28;20450;-87
2021/07/16 11:55:44;;;;;;;25.17;11.00;;;20.90;99.90;;;;;;5017815;28;20509;-86
2021/07/16 11:58:12;;;;;;;25.10;9.57;;;20.90;99.90;;;;;;5019371;28;20450;-85
2021/07/16 12:00:41;;;;;;;28.27;10.60;;;20.80;99.90;;;;;;5018057;28;20808;-86
2021/07/16 12:03:11;;;;;;;29.27;9.90;;;20.80;99.90;;;;;;5018145;28;20458;-86
2021/07/16 12:05:47;;;;;;;26.70;11.13;;;20.90;99.90;;;;;;5020362;28;20496;-86
2021/07/16 12:08:18;;;;;;;27.87;11.23;;;20.90;99.90;;;;;;5017803;28;20449;-85
2021/07/16 12:10:44;;;;;;;27.00;10.97;;;20.80;99.90;;;;;;5017555;28;20573;-86
2021/07/16 12:13:12;;;;;;;25.60;10.57;;;20.80;99.90;;;;;;5017958;28;20489;-85
2021/07/16 12:15:39;;;;;;;29.73;12.03;;;20.80;99.90;;;;;;5023069;28;20512;-87
2021/07/16 12:18:08;;;;;;;30.70;10.23;;;20.80;99.90;;;;;;5036157;28;20442;-86
2021/07/16 12:20:39;;;;;;;26.73;9.10;;;20.70;99.90;;;;;;5033751;28;20476;-86
2021/07/16 12:23:08;;;;;;;25.90;9.40;;;20.80;99.90;;;;;;5007199;28;20461;-85
2021/07/16 12:25:37;;;;;;;29.07;7.90;;;21.00;99.90;;;;;;5001756;28;20560;-86
2021/07/16 12:28:09;;;;;;;29.23;7.07;;;21.10;99.90;;;;;;5017583;28;21016;-85
2021/07/16 12:30:36;;;;;;;19.57;6.30;;;21.20;99.90;;;;;;5018369;28;20482;-85
2021/07/16 12:33:05;;;;;;;25.53;7.10;;;21.30;99.90;;;;;;5006224;28;20601;-85
2021/07/16 12:35:37;;;;;;;22.73;8.07;;;21.30;99.90;;;;;;5008050;28;20463;-85
2021/07/16 12:38:07;;;;;;;24.43;7.10;;;21.30;99.90;;;;;;5014440;28;20869;-86
2021/07/16 12:40:36;;;;;;;24.57;8.30;;;21.30;99.90;;;;;;5000922;28;20524;-87
2021/07/16 12:43:07;;;;;;;30.50;9.37;;;21.20;99.90;;;;;;5006814;28;20483;-86
2021/07/16 12:45:46;;;;;;;24.43;8.10;;;21.20;99.90;;;;;;5008926;28;20857;-86
2021/07/16 12:48:53;;;;;;;26.10;7.80;;;21.20;99.90;;;;;;4999495;28;20445;-85